Zooks Dam, Pennsylvania
Current Conditions -  °F | °C
As of 11:53 PM on Friday 21 Nov 2014 (Local Time) from KSEG Reporting Station
Clear Clear  
Wind Chill: -8°   Ceiling: Unl
Heat Index: -8°   Visibility: 10mi
Dew Point: -11°   Wind: 0mph
Humidity: 81%   Direction: NA
Pressure: 30.52"   Gusts: NA
Location:  40.5853°N, 77.3611°W
Report Text: KSEG 220453Z AUTO 00000KT 10SM CLR M08/M11 A3052 RMK AO2 SLP343 T10831111 400221083
Loading
Personal Weather Stations






























Interactive Weather Map New forecast layout! Learn more

10-Day Weather Forecast

Advertisements
Track Severe Weather on mobile